sensor_id;sensor_type;location;lat;lon;timestamp;P1;durP1;ratioP1;P2;durP2;ratioP2
44476;SDS011;30180;44.788;10.366;2022-08-06T00:02:19;9.02;;;4.50;;
44476;SDS011;30180;44.788;10.366;2022-08-06T00:04:54;6.97;;;4.45;;
44476;SDS011;30180;44.788;10.366;2022-08-06T00:07:23;8.35;;;4.38;;
44476;SDS011;30180;44.788;10.366;2022-08-06T00:12:27;7.05;;;4.65;;
44476;SDS011;30180;44.788;10.366;2022-08-06T00:15:02;7.40;;;4.70;;
44476;SDS011;30180;44.788;10.366;2022-08-06T00:17:39;6.53;;;4.28;;
44476;SDS011;30180;44.788;10.366;2022-08-06T00:20:09;8.18;;;4.55;;
44476;SDS011;30180;44.788;10.366;2022-08-06T00:22:55;6.88;;;4.18;;
44476;SDS011;30180;44.788;10.366;2022-08-06T00:25:23;7.97;;;4.30;;
44476;SDS011;30180;44.788;10.366;2022-08-06T00:27:51;8.20;;;4.75;;
44476;SDS011;30180;44.788;10.366;2022-08-06T00:30:21;7.93;;;4.85;;
44476;SDS011;30180;44.788;10.366;2022-08-06T00:32:49;7.25;;;4.65;;
44476;SDS011;30180;44.788;10.366;2022-08-06T00:35:18;8.13;;;5.03;;
44476;SDS011;30180;44.788;10.366;2022-08-06T00:37:53;7.18;;;4.43;;
44476;SDS011;30180;44.788;10.366;2022-08-06T00:40:25;6.35;;;4.53;;
44476;SDS011;30180;44.788;10.366;2022-08-06T00:42:55;5.78;;;4.40;;
44476;SDS011;30180;44.788;10.366;2022-08-06T00:45:33;8.15;;;4.63;;
44476;SDS011;30180;44.788;10.366;2022-08-06T00:48:10;8.57;;;4.75;;
44476;SDS011;30180;44.788;10.366;2022-08-06T00:50:59;6.60;;;4.13;;
44476;SDS011;30180;44.788;10.366;2022-08-06T00:53:28;7.25;;;4.50;;
44476;SDS011;30180;44.788;10.366;2022-08-06T00:55:59;6.60;;;4.40;;
44476;SDS011;30180;44.788;10.366;2022-08-06T00:58:34;5.80;;;4.20;;
44476;SDS011;30180;44.788;10.366;2022-08-06T01:01:07;7.28;;;4.60;;
44476;SDS011;30180;44.788;10.366;2022-08-06T01:03:42;6.32;;;4.30;;
44476;SDS011;30180;44.788;10.366;2022-08-06T01:06:17;7.35;;;4.30;;
44476;SDS011;30180;44.788;10.366;2022-08-06T01:09:06;7.30;;;4.40;;
44476;SDS011;30180;44.788;10.366;2022-08-06T01:11:36;5.70;;;4.13;;
44476;SDS011;30180;44.788;10.366;2022-08-06T01:14:04;5.82;;;4.28;;
44476;SDS011;30180;44.788;10.366;2022-08-06T01:16:38;7.63;;;4.20;;
44476;SDS011;30180;44.788;10.366;2022-08-06T01:19:17;5.60;;;3.95;;
44476;SDS011;30180;44.788;10.366;2022-08-06T01:22:24;6.90;;;4.00;;
44476;SDS011;30180;44.788;10.366;2022-08-06T01:25:09;5.82;;;4.07;;
44476;SDS011;30180;44.788;10.366;2022-08-06T01:27:48;5.85;;;3.97;;
44476;SDS011;30180;44.788;10.366;2022-08-06T01:30:22;6.28;;;3.97;;
44476;SDS011;30180;44.788;10.366;2022-08-06T01:32:56;6.65;;;3.97;;
44476;SDS011;30180;44.788;10.366;2022-08-06T01:35:41;5.45;;;4.30;;
44476;SDS011;30180;44.788;10.366;2022-08-06T01:38:22;7.35;;;4.15;;
44476;SDS011;30180;44.788;10.366;2022-08-06T01:40:54;8.13;;;4.55;;
44476;SDS011;30180;44.788;10.366;2022-08-06T01:43:26;6.68;;;4.38;;
44476;SDS011;30180;44.788;10.366;2022-08-06T01:46:16;5.72;;;4.13;;
44476;SDS011;30180;44.788;10.366;2022-08-06T01:48:44;6.63;;;4.55;;
44476;SDS011;30180;44.788;10.366;2022-08-06T01:51:14;5.25;;;3.85;;
44476;SDS011;30180;44.788;10.366;2022-08-06T01:54:03;6.25;;;3.85;;
44476;SDS011;30180;44.788;10.366;2022-08-06T01:56:36;6.40;;;4.28;;
44476;SDS011;30180;44.788;10.366;2022-08-06T01:59:28;6.97;;;4.20;;
44476;SDS011;30180;44.788;10.366;2022-08-06T02:02:02;6.20;;;3.90;;
44476;SDS011;30180;44.788;10.366;2022-08-06T02:04:39;7.43;;;4.22;;
44476;SDS011;30180;44.788;10.366;2022-08-06T02:07:15;5.45;;;4.25;;
44476;SDS011;30180;44.788;10.366;2022-08-06T02:10:06;6.18;;;3.95;;
44476;SDS011;30180;44.788;10.366;2022-08-06T02:12:37;6.68;;;4.00;;
44476;SDS011;30180;44.788;10.366;2022-08-06T02:15:13;5.90;;;4.00;;
44476;SDS011;30180;44.788;10.366;2022-08-06T02:17:49;6.63;;;3.80;;
44476;SDS011;30180;44.788;10.366;2022-08-06T02:20:33;9.70;;;4.43;;
44476;SDS011;30180;44.788;10.366;2022-08-06T02:23:08;6.35;;;4.32;;
44476;SDS011;30180;44.788;10.366;2022-08-06T02:25:41;7.18;;;3.83;;
44476;SDS011;30180;44.788;10.366;2022-08-06T02:28:19;5.50;;;3.72;;
44476;SDS011;30180;44.788;10.366;2022-08-06T02:30:53;6.45;;;4.07;;
44476;SDS011;30180;44.788;10.366;2022-08-06T02:33:24;4.70;;;3.90;;
44476;SDS011;30180;44.788;10.366;2022-08-06T02:36:14;5.53;;;3.90;;
44476;SDS011;30180;44.788;10.366;2022-08-06T02:38:54;7.63;;;4.10;;
44476;SDS011;30180;44.788;10.366;2022-08-06T02:41:29;4.70;;;4.00;;
44476;SDS011;30180;44.788;10.366;2022-08-06T02:44:05;5.70;;;3.75;;
44476;SDS011;30180;44.788;10.366;2022-08-06T02:46:39;6.13;;;3.72;;
44476;SDS011;30180;44.788;10.366;2022-08-06T02:49:15;5.55;;;3.67;;
44476;SDS011;30180;44.788;10.366;2022-08-06T02:51:51;7.32;;;4.00;;
44476;SDS011;30180;44.788;10.366;2022-08-06T02:54:45;6.15;;;3.70;;
44476;SDS011;30180;44.788;10.366;2022-08-06T02:57:24;5.05;;;3.47;;
44476;SDS011;30180;44.788;10.366;2022-08-06T03:00:16;5.75;;;4.03;;
44476;SDS011;30180;44.788;10.366;2022-08-06T03:02:57;6.53;;;3.97;;
44476;SDS011;30180;44.788;10.366;2022-08-06T03:05:27;5.80;;;3.50;;
44476;SDS011;30180;44.788;10.366;2022-08-06T03:08:17;6.30;;;3.45;;
44476;SDS011;30180;44.788;10.366;2022-08-06T03:10:53;5.68;;;3.78;;
44476;SDS011;30180;44.788;10.366;2022-08-06T03:13:23;6.20;;;3.70;;
44476;SDS011;30180;44.788;10.366;2022-08-06T03:16:01;5.75;;;3.55;;
44476;SDS011;30180;44.788;10.366;2022-08-06T03:18:53;5.90;;;3.60;;
44476;SDS011;30180;44.788;10.366;2022-08-06T03:21:42;5.30;;;3.63;;
44476;SDS011;30180;44.788;10.366;2022-08-06T03:24:22;5.57;;;3.80;;
44476;SDS011;30180;44.788;10.366;2022-08-06T03:26:53;5.38;;;3.42;;
44476;SDS011;30180;44.788;10.366;2022-08-06T03:29:23;4.95;;;3.35;;
44476;SDS011;30180;44.788;10.366;2022-08-06T03:31:53;7.57;;;3.63;;
44476;SDS011;30180;44.788;10.366;2022-08-06T03:34:39;4.60;;;3.50;;
44476;SDS011;30180;44.788;10.366;2022-08-06T03:37:10;5.75;;;3.50;;
44476;SDS011;30180;44.788;10.366;2022-08-06T03:39:41;5.15;;;3.28;;
44476;SDS011;30180;44.788;10.366;2022-08-06T03:42:19;5.07;;;3.47;;
44476;SDS011;30180;44.788;10.366;2022-08-06T03:45:03;5.45;;;3.50;;
44476;SDS011;30180;44.788;10.366;2022-08-06T03:47:33;4.57;;;3.30;;
44476;SDS011;30180;44.788;10.366;2022-08-06T03:50:31;6.20;;;3.50;;
44476;SDS011;30180;44.788;10.366;2022-08-06T03:53:06;4.22;;;3.28;;
44476;SDS011;30180;44.788;10.366;2022-08-06T03:55:42;5.40;;;3.60;;
44476;SDS011;30180;44.788;10.366;2022-08-06T03:58:14;7.35;;;3.50;;
44476;SDS011;30180;44.788;10.366;2022-08-06T04:00:55;5.22;;;3.60;;
44476;SDS011;30180;44.788;10.366;2022-08-06T04:03:29;5.72;;;3.60;;
44476;SDS011;30180;44.788;10.366;2022-08-06T04:06:06;4.80;;;3.35;;
44476;SDS011;30180;44.788;10.366;2022-08-06T04:08:42;5.13;;;3.55;;
44476;SDS011;30180;44.788;10.366;2022-08-06T04:11:12;5.45;;;3.70;;
44476;SDS011;30180;44.788;10.366;2022-08-06T04:14:01;4.65;;;3.80;;
44476;SDS011;30180;44.788;10.366;2022-08-06T04:16:34;3.95;;;3.20;;
44476;SDS011;30180;44.788;10.366;2022-08-06T04:19:03;4.63;;;3.47;;
44476;SDS011;30180;44.788;10.366;2022-08-06T04:21:36;5.57;;;3.33;;
44476;SDS011;30180;44.788;10.366;2022-08-06T04:24:25;5.18;;;3.20;;
44476;SDS011;30180;44.788;10.366;2022-08-06T04:26:58;5.35;;;3.50;;
44476;SDS011;30180;44.788;10.366;2022-08-06T04:29:35;5.15;;;3.38;;
44476;SDS011;30180;44.788;10.366;2022-08-06T04:32:24;5.97;;;3.70;;
44476;SDS011;30180;44.788;10.366;2022-08-06T04:34:57;4.70;;;3.45;;
44476;SDS011;30180;44.788;10.366;2022-08-06T04:37:50;5.80;;;3.38;;
44476;SDS011;30180;44.788;10.366;2022-08-06T04:40:20;5.47;;;3.33;;
44476;SDS011;30180;44.788;10.366;2022-08-06T04:43:01;4.90;;;3.38;;
44476;SDS011;30180;44.788;10.366;2022-08-06T04:45:30;5.82;;;3.35;;
44476;SDS011;30180;44.788;10.366;2022-08-06T04:48:19;3.90;;;2.97;;
44476;SDS011;30180;44.788;10.366;2022-08-06T04:50:50;4.90;;;3.15;;
44476;SDS011;30180;44.788;10.366;2022-08-06T04:53:21;3.90;;;2.87;;
44476;SDS011;30180;44.788;10.366;2022-08-06T04:58:43;6.00;;;3.60;;
44476;SDS011;30180;44.788;10.366;2022-08-06T05:01:11;6.43;;;2.95;;
44476;SDS011;30180;44.788;10.366;2022-08-06T05:03:39;4.55;;;2.65;;
44476;SDS011;30180;44.788;10.366;2022-08-06T05:06:31;4.25;;;2.80;;
44476;SDS011;30180;44.788;10.366;2022-08-06T05:09:15;4.72;;;2.70;;
44476;SDS011;30180;44.788;10.366;2022-08-06T05:11:50;4.38;;;2.60;;
44476;SDS011;30180;44.788;10.366;2022-08-06T05:14:27;4.32;;;2.70;;
44476;SDS011;30180;44.788;10.366;2022-08-06T05:17:00;4.40;;;2.78;;
44476;SDS011;30180;44.788;10.366;2022-08-06T05:19:35;4.53;;;3.15;;
44476;SDS011;30180;44.788;10.366;2022-08-06T05:22:09;3.95;;;2.80;;
44476;SDS011;30180;44.788;10.366;2022-08-06T05:25:02;3.92;;;2.67;;
44476;SDS011;30180;44.788;10.366;2022-08-06T05:27:47;3.75;;;2.80;;
44476;SDS011;30180;44.788;10.366;2022-08-06T05:30:41;4.32;;;3.15;;
44476;SDS011;30180;44.788;10.366;2022-08-06T05:33:10;4.88;;;2.90;;
44476;SDS011;30180;44.788;10.366;2022-08-06T05:35:42;5.35;;;2.63;;
44476;SDS011;30180;44.788;10.366;2022-08-06T05:38:28;4.63;;;2.72;;
44476;SDS011;30180;44.788;10.366;2022-08-06T05:41:03;4.68;;;3.17;;
44476;SDS011;30180;44.788;10.366;2022-08-06T05:43:33;4.20;;;2.90;;
44476;SDS011;30180;44.788;10.366;2022-08-06T05:46:23;3.60;;;2.50;;
44476;SDS011;30180;44.788;10.366;2022-08-06T05:48:55;4.60;;;3.25;;
44476;SDS011;30180;44.788;10.366;2022-08-06T05:51:50;3.97;;;2.60;;
44476;SDS011;30180;44.788;10.366;2022-08-06T05:54:22;6.45;;;2.95;;
44476;SDS011;30180;44.788;10.366;2022-08-06T05:56:58;4.53;;;3.40;;
44476;SDS011;30180;44.788;10.366;2022-08-06T05:59:32;3.83;;;2.60;;
44476;SDS011;30180;44.788;10.366;2022-08-06T06:02:22;5.57;;;3.03;;
44476;SDS011;30180;44.788;10.366;2022-08-06T06:07:41;4.75;;;2.78;;
44476;SDS011;30180;44.788;10.366;2022-08-06T06:10:30;4.95;;;3.03;;
44476;SDS011;30180;44.788;10.366;2022-08-06T06:13:03;4.00;;;2.60;;
44476;SDS011;30180;44.788;10.366;2022-08-06T06:18:37;3.83;;;2.80;;
44476;SDS011;30180;44.788;10.366;2022-08-06T06:21:22;3.88;;;3.15;;
44476;SDS011;30180;44.788;10.366;2022-08-06T06:26:35;4.05;;;2.97;;
44476;SDS011;30180;44.788;10.366;2022-08-06T06:29:17;6.68;;;3.00;;
44476;SDS011;30180;44.788;10.366;2022-08-06T06:32:16;10.77;;;4.30;;
44476;SDS011;30180;44.788;10.366;2022-08-06T06:34:57;12.95;;;3.75;;
44476;SDS011;30180;44.788;10.366;2022-08-06T06:37:35;31.67;;;10.57;;
44476;SDS011;30180;44.788;10.366;2022-08-06T06:40:17;31.58;;;9.10;;
44476;SDS011;30180;44.788;10.366;2022-08-06T06:42:56;23.98;;;7.70;;
44476;SDS011;30180;44.788;10.366;2022-08-06T06:45:32;22.50;;;7.32;;
44476;SDS011;30180;44.788;10.366;2022-08-06T06:48:31;21.27;;;6.63;;
44476;SDS011;30180;44.788;10.366;2022-08-06T06:51:03;18.00;;;6.93;;
44476;SDS011;30180;44.788;10.366;2022-08-06T06:53:55;15.32;;;5.82;;
44476;SDS011;30180;44.788;10.366;2022-08-06T06:56:34;17.73;;;6.18;;
44476;SDS011;30180;44.788;10.366;2022-08-06T06:59:08;16.48;;;5.63;;
44476;SDS011;30180;44.788;10.366;2022-08-06T07:01:45;12.23;;;5.28;;
44476;SDS011;30180;44.788;10.366;2022-08-06T07:04:20;10.23;;;4.63;;
44476;SDS011;30180;44.788;10.366;2022-08-06T07:06:52;12.52;;;5.25;;
44476;SDS011;30180;44.788;10.366;2022-08-06T07:09:32;15.68;;;4.97;;
44476;SDS011;30180;44.788;10.366;2022-08-06T07:12:09;10.43;;;5.07;;
44476;SDS011;30180;44.788;10.366;2022-08-06T07:14:51;11.73;;;4.85;;
44476;SDS011;30180;44.788;10.366;2022-08-06T07:17:28;10.43;;;4.55;;
44476;SDS011;30180;44.788;10.366;2022-08-06T07:20:14;10.90;;;4.72;;
44476;SDS011;30180;44.788;10.366;2022-08-06T07:22:54;9.70;;;4.70;;
44476;SDS011;30180;44.788;10.366;2022-08-06T07:25:45;9.93;;;4.60;;
44476;SDS011;30180;44.788;10.366;2022-08-06T07:28:20;8.20;;;4.53;;
44476;SDS011;30180;44.788;10.366;2022-08-06T07:30:56;13.65;;;5.18;;
44476;SDS011;30180;44.788;10.366;2022-08-06T07:33:34;11.65;;;4.20;;
44476;SDS011;30180;44.788;10.366;2022-08-06T07:36:26;12.02;;;4.15;;
44476;SDS011;30180;44.788;10.366;2022-08-06T07:39:04;7.65;;;3.70;;
44476;SDS011;30180;44.788;10.366;2022-08-06T07:41:40;10.13;;;3.90;;
44476;SDS011;30180;44.788;10.366;2022-08-06T07:44:29;8.43;;;3.70;;
44476;SDS011;30180;44.788;10.366;2022-08-06T07:47:20;6.45;;;3.42;;
44476;SDS011;30180;44.788;10.366;2022-08-06T07:50:13;7.00;;;3.85;;
44476;SDS011;30180;44.788;10.366;2022-08-06T07:52:49;7.28;;;3.45;;
44476;SDS011;30180;44.788;10.366;2022-08-06T07:55:20;8.40;;;3.40;;
44476;SDS011;30180;44.788;10.366;2022-08-06T07:58:01;5.88;;;3.42;;
44476;SDS011;30180;44.788;10.366;2022-08-06T08:00:31;6.07;;;3.20;;
44476;SDS011;30180;44.788;10.366;2022-08-06T08:03:04;7.63;;;3.55;;
44476;SDS011;30180;44.788;10.366;2022-08-06T08:06:12;5.95;;;3.38;;
44476;SDS011;30180;44.788;10.366;2022-08-06T08:08:52;6.60;;;3.10;;
44476;SDS011;30180;44.788;10.366;2022-08-06T08:11:23;9.60;;;3.30;;
44476;SDS011;30180;44.788;10.366;2022-08-06T08:14:13;8.07;;;3.40;;
44476;SDS011;30180;44.788;10.366;2022-08-06T08:16:44;5.95;;;2.83;;
44476;SDS011;30180;44.788;10.366;2022-08-06T08:19:22;7.57;;;3.33;;
44476;SDS011;30180;44.788;10.366;2022-08-06T08:22:02;7.45;;;3.38;;
44476;SDS011;30180;44.788;10.366;2022-08-06T08:24:36;5.72;;;2.92;;
44476;SDS011;30180;44.788;10.366;2022-08-06T08:27:05;5.75;;;3.08;;
44476;SDS011;30180;44.788;10.366;2022-08-06T08:29:48;5.13;;;3.05;;
44476;SDS011;30180;44.788;10.366;2022-08-06T08:32:22;6.38;;;3.00;;
44476;SDS011;30180;44.788;10.366;2022-08-06T08:34:51;6.00;;;3.07;;
44476;SDS011;30180;44.788;10.366;2022-08-06T08:37:24;5.07;;;2.90;;
44476;SDS011;30180;44.788;10.366;2022-08-06T08:39:57;6.50;;;3.10;;
44476;SDS011;30180;44.788;10.366;2022-08-06T08:42:27;6.55;;;3.10;;
44476;SDS011;30180;44.788;10.366;2022-08-06T08:45:02;4.95;;;3.03;;
44476;SDS011;30180;44.788;10.366;2022-08-06T08:47:34;6.38;;;2.90;;
44476;SDS011;30180;44.788;10.366;2022-08-06T08:50:23;4.53;;;2.80;;
44476;SDS011;30180;44.788;10.366;2022-08-06T08:52:57;7.95;;;3.33;;
44476;SDS011;30180;44.788;10.366;2022-08-06T08:55:30;4.78;;;3.00;;
44476;SDS011;30180;44.788;10.366;2022-08-06T08:58:19;7.20;;;3.20;;
44476;SDS011;30180;44.788;10.366;2022-08-06T09:01:08;5.30;;;3.10;;
44476;SDS011;30180;44.788;10.366;2022-08-06T09:03:56;5.95;;;3.33;;
44476;SDS011;30180;44.788;10.366;2022-08-06T09:06:27;6.75;;;3.50;;
44476;SDS011;30180;44.788;10.366;2022-08-06T09:09:04;4.20;;;2.90;;
44476;SDS011;30180;44.788;10.366;2022-08-06T09:11:41;5.47;;;3.15;;
44476;SDS011;30180;44.788;10.366;2022-08-06T09:14:29;3.97;;;3.00;;
44476;SDS011;30180;44.788;10.366;2022-08-06T09:16:59;4.50;;;2.95;;
44476;SDS011;30180;44.788;10.366;2022-08-06T09:19:29;6.75;;;3.08;;
44476;SDS011;30180;44.788;10.366;2022-08-06T09:22:07;5.88;;;3.55;;
44476;SDS011;30180;44.788;10.366;2022-08-06T09:24:38;6.65;;;3.38;;
44476;SDS011;30180;44.788;10.366;2022-08-06T09:27:07;6.07;;;3.30;;
44476;SDS011;30180;44.788;10.366;2022-08-06T09:29:57;7.22;;;3.30;;
44476;SDS011;30180;44.788;10.366;2022-08-06T09:32:47;8.18;;;3.22;;
44476;SDS011;30180;44.788;10.366;2022-08-06T09:35:24;5.38;;;2.80;;
44476;SDS011;30180;44.788;10.366;2022-08-06T09:38:11;5.65;;;3.03;;
44476;SDS011;30180;44.788;10.366;2022-08-06T09:43:41;4.70;;;3.10;;
44476;SDS011;30180;44.788;10.366;2022-08-06T09:46:37;5.20;;;3.00;;
44476;SDS011;30180;44.788;10.366;2022-08-06T09:49:07;6.43;;;3.17;;
44476;SDS011;30180;44.788;10.366;2022-08-06T09:52:09;8.70;;;3.30;;
44476;SDS011;30180;44.788;10.366;2022-08-06T09:54:39;6.07;;;2.95;;
44476;SDS011;30180;44.788;10.366;2022-08-06T09:57:09;6.97;;;3.38;;
44476;SDS011;30180;44.788;10.366;2022-08-06T09:59:41;5.47;;;2.97;;
44476;SDS011;30180;44.788;10.366;2022-08-06T10:02:16;6.82;;;2.97;;
44476;SDS011;30180;44.788;10.366;2022-08-06T10:05:06;5.75;;;3.42;;
44476;SDS011;30180;44.788;10.366;2022-08-06T10:07:46;8.63;;;3.70;;
44476;SDS011;30180;44.788;10.366;2022-08-06T10:10:19;12.15;;;3.65;;
44476;SDS011;30180;44.788;10.366;2022-08-06T10:13:19;5.65;;;3.20;;
44476;SDS011;30180;44.788;10.366;2022-08-06T10:15:51;11.75;;;3.22;;
44476;SDS011;30180;44.788;10.366;2022-08-06T10:18:29;5.38;;;3.22;;
44476;SDS011;30180;44.788;10.366;2022-08-06T10:21:19;5.70;;;3.20;;
44476;SDS011;30180;44.788;10.366;2022-08-06T10:24:00;4.63;;;3.28;;
44476;SDS011;30180;44.788;10.366;2022-08-06T10:26:32;8.20;;;3.40;;
44476;SDS011;30180;44.788;10.366;2022-08-06T10:29:04;7.45;;;2.92;;
44476;SDS011;30180;44.788;10.366;2022-08-06T10:31:35;6.07;;;3.35;;
44476;SDS011;30180;44.788;10.366;2022-08-06T10:34:06;16.13;;;3.90;;
44476;SDS011;30180;44.788;10.366;2022-08-06T10:36:43;12.90;;;3.50;;
44476;SDS011;30180;44.788;10.366;2022-08-06T10:39:18;18.38;;;4.07;;
44476;SDS011;30180;44.788;10.366;2022-08-06T10:42:12;22.25;;;3.90;;
44476;SDS011;30180;44.788;10.366;2022-08-06T10:44:49;12.75;;;3.80;;
44476;SDS011;30180;44.788;10.366;2022-08-06T10:47:19;14.68;;;4.40;;
44476;SDS011;30180;44.788;10.366;2022-08-06T10:50:08;32.97;;;5.63;;
44476;SDS011;30180;44.788;10.366;2022-08-06T10:52:58;22.43;;;4.20;;
44476;SDS011;30180;44.788;10.366;2022-08-06T10:55:29;18.23;;;4.35;;
44476;SDS011;30180;44.788;10.366;2022-08-06T10:58:08;11.63;;;4.03;;
44476;SDS011;30180;44.788;10.366;2022-08-06T11:00:39;23.80;;;4.28;;
44476;SDS011;30180;44.788;10.366;2022-08-06T11:03:17;13.88;;;3.90;;
44476;SDS011;30180;44.788;10.366;2022-08-06T11:05:52;13.88;;;3.83;;
44476;SDS011;30180;44.788;10.366;2022-08-06T11:08:43;20.55;;;4.97;;
44476;SDS011;30180;44.788;10.366;2022-08-06T11:11:32;9.45;;;3.90;;
44476;SDS011;30180;44.788;10.366;2022-08-06T11:14:32;13.43;;;4.13;;
44476;SDS011;30180;44.788;10.366;2022-08-06T11:17:05;15.10;;;3.90;;
44476;SDS011;30180;44.788;10.366;2022-08-06T11:19:37;17.52;;;4.18;;
44476;SDS011;30180;44.788;10.366;2022-08-06T11:25:20;11.55;;;3.67;;
44476;SDS011;30180;44.788;10.366;2022-08-06T11:28:05;9.10;;;3.78;;
44476;SDS011;30180;44.788;10.366;2022-08-06T11:30:37;12.45;;;3.72;;
44476;SDS011;30180;44.788;10.366;2022-08-06T11:33:13;7.97;;;3.65;;
44476;SDS011;30180;44.788;10.366;2022-08-06T11:41:52;9.27;;;3.95;;
44476;SDS011;30180;44.788;10.366;2022-08-06T11:44:26;8.43;;;3.85;;
44476;SDS011;30180;44.788;10.366;2022-08-06T11:47:06;5.72;;;3.65;;
44476;SDS011;30180;44.788;10.366;2022-08-06T11:49:38;9.55;;;3.70;;
44476;SDS011;30180;44.788;10.366;2022-08-06T11:52:10;7.38;;;3.78;;
44476;SDS011;30180;44.788;10.366;2022-08-06T11:55:13;6.97;;;3.65;;
44476;SDS011;30180;44.788;10.366;2022-08-06T11:57:49;12.57;;;3.40;;
44476;SDS011;30180;44.788;10.366;2022-08-06T12:00:19;13.90;;;3.72;;
44476;SDS011;30180;44.788;10.366;2022-08-06T12:02:50;7.05;;;3.90;;
44476;SDS011;30180;44.788;10.366;2022-08-06T12:05:33;11.35;;;4.03;;
44476;SDS011;30180;44.788;10.366;2022-08-06T12:08:24;10.27;;;3.83;;
44476;SDS011;30180;44.788;10.366;2022-08-06T12:11:27;13.30;;;4.55;;
44476;SDS011;30180;44.788;10.366;2022-08-06T12:14:04;6.05;;;3.72;;
44476;SDS011;30180;44.788;10.366;2022-08-06T12:16:59;8.15;;;3.88;;
44476;SDS011;30180;44.788;10.366;2022-08-06T12:19:43;7.85;;;3.88;;
44476;SDS011;30180;44.788;10.366;2022-08-06T12:22:30;5.07;;;3.70;;
44476;SDS011;30180;44.788;10.366;2022-08-06T12:25:01;11.27;;;4.10;;
44476;SDS011;30180;44.788;10.366;2022-08-06T12:27:38;10.50;;;3.90;;
44476;SDS011;30180;44.788;10.366;2022-08-06T12:30:19;8.68;;;3.80;;
44476;SDS011;30180;44.788;10.366;2022-08-06T12:33:03;7.07;;;3.80;;
44476;SDS011;30180;44.788;10.366;2022-08-06T12:35:48;5.68;;;3.38;;
44476;SDS011;30180;44.788;10.366;2022-08-06T12:38:19;9.02;;;3.90;;
44476;SDS011;30180;44.788;10.366;2022-08-06T12:40:53;8.88;;;3.80;;
44476;SDS011;30180;44.788;10.366;2022-08-06T12:43:24;8.57;;;3.78;;
44476;SDS011;30180;44.788;10.366;2022-08-06T12:46:12;8.98;;;3.50;;
44476;SDS011;30180;44.788;10.366;2022-08-06T12:48:46;8.50;;;3.95;;
44476;SDS011;30180;44.788;10.366;2022-08-06T12:51:17;8.35;;;4.28;;
44476;SDS011;30180;44.788;10.366;2022-08-06T12:53:54;11.00;;;4.30;;
44476;SDS011;30180;44.788;10.366;2022-08-06T12:56:26;7.18;;;3.80;;
44476;SDS011;30180;44.788;10.366;2022-08-06T12:58:59;6.90;;;4.13;;
44476;SDS011;30180;44.788;10.366;2022-08-06T13:01:31;6.78;;;3.78;;
44476;SDS011;30180;44.788;10.366;2022-08-06T13:04:21;10.48;;;3.92;;
44476;SDS011;30180;44.788;10.366;2022-08-06T13:06:56;10.02;;;4.28;;
44476;SDS011;30180;44.788;10.366;2022-08-06T13:09:42;6.20;;;3.50;;
44476;SDS011;30180;44.788;10.366;2022-08-06T13:12:32;7.05;;;3.42;;
44476;SDS011;30180;44.788;10.366;2022-08-06T13:15:21;7.25;;;3.95;;
44476;SDS011;30180;44.788;10.366;2022-08-06T13:18:13;5.97;;;3.90;;
44476;SDS011;30180;44.788;10.366;2022-08-06T13:21:03;7.75;;;3.70;;
44476;SDS011;30180;44.788;10.366;2022-08-06T13:23:44;7.90;;;3.97;;
44476;SDS011;30180;44.788;10.366;2022-08-06T13:26:16;5.28;;;3.70;;
44476;SDS011;30180;44.788;10.366;2022-08-06T13:29:09;9.30;;;4.32;;
44476;SDS011;30180;44.788;10.366;2022-08-06T13:32:00;6.55;;;4.03;;
44476;SDS011;30180;44.788;10.366;2022-08-06T13:34:55;8.82;;;4.53;;
44476;SDS011;30180;44.788;10.366;2022-08-06T13:37:44;9.57;;;4.05;;
44476;SDS011;30180;44.788;10.366;2022-08-06T13:40:36;7.43;;;3.70;;
44476;SDS011;30180;44.788;10.366;2022-08-06T13:43:14;7.07;;;3.97;;
44476;SDS011;30180;44.788;10.366;2022-08-06T13:46:06;5.97;;;3.97;;
44476;SDS011;30180;44.788;10.366;2022-08-06T13:48:42;7.68;;;3.92;;
44476;SDS011;30180;44.788;10.366;2022-08-06T13:51:12;9.35;;;4.30;;
44476;SDS011;30180;44.788;10.366;2022-08-06T13:53:53;9.13;;;3.80;;
44476;SDS011;30180;44.788;10.366;2022-08-06T13:56:24;6.93;;;3.95;;
44476;SDS011;30180;44.788;10.366;2022-08-06T13:58:56;7.43;;;4.30;;
44476;SDS011;30180;44.788;10.366;2022-08-06T14:01:25;7.07;;;4.03;;
44476;SDS011;30180;44.788;10.366;2022-08-06T14:04:11;7.78;;;4.55;;
44476;SDS011;30180;44.788;10.366;2022-08-06T14:06:46;6.57;;;3.95;;
44476;SDS011;30180;44.788;10.366;2022-08-06T14:09:17;6.45;;;4.15;;
44476;SDS011;30180;44.788;10.366;2022-08-06T14:11:48;8.02;;;4.00;;
44476;SDS011;30180;44.788;10.366;2022-08-06T14:14:21;6.30;;;3.80;;
44476;SDS011;30180;44.788;10.366;2022-08-06T14:16:53;6.90;;;4.30;;
44476;SDS011;30180;44.788;10.366;2022-08-06T14:19:22;6.73;;;3.67;;
44476;SDS011;30180;44.788;10.366;2022-08-06T14:22:11;10.20;;;3.80;;
44476;SDS011;30180;44.788;10.366;2022-08-06T14:24:39;7.93;;;4.43;;
44476;SDS011;30180;44.788;10.366;2022-08-06T14:27:19;8.23;;;4.57;;
44476;SDS011;30180;44.788;10.366;2022-08-06T14:29:53;6.28;;;4.28;;
44476;SDS011;30180;44.788;10.366;2022-08-06T14:32:41;11.27;;;4.70;;
44476;SDS011;30180;44.788;10.366;2022-08-06T14:35:13;7.78;;;4.20;;
44476;SDS011;30180;44.788;10.366;2022-08-06T14:37:45;9.68;;;3.80;;
44476;SDS011;30180;44.788;10.366;2022-08-06T14:40:22;12.15;;;4.00;;
44476;SDS011;30180;44.788;10.366;2022-08-06T14:43:28;6.97;;;3.83;;
44476;SDS011;30180;44.788;10.366;2022-08-06T14:46:23;6.05;;;3.75;;
44476;SDS011;30180;44.788;10.366;2022-08-06T14:48:56;6.05;;;3.75;;
44476;SDS011;30180;44.788;10.366;2022-08-06T14:51:31;7.10;;;3.78;;
44476;SDS011;30180;44.788;10.366;2022-08-06T14:54:19;9.32;;;3.75;;
44476;SDS011;30180;44.788;10.366;2022-08-06T14:56:57;7.53;;;4.13;;
44476;SDS011;30180;44.788;10.366;2022-08-06T14:59:28;7.78;;;3.97;;
44476;SDS011;30180;44.788;10.366;2022-08-06T15:02:15;7.97;;;3.70;;
44476;SDS011;30180;44.788;10.366;2022-08-06T15:04:43;23.47;;;4.23;;
44476;SDS011;30180;44.788;10.366;2022-08-06T15:07:18;5.68;;;3.20;;
44476;SDS011;30180;44.788;10.366;2022-08-06T15:09:53;10.00;;;4.25;;
44476;SDS011;30180;44.788;10.366;2022-08-06T15:12:41;9.52;;;3.88;;
44476;SDS011;30180;44.788;10.366;2022-08-06T15:15:17;5.72;;;3.67;;
44476;SDS011;30180;44.788;10.366;2022-08-06T15:18:03;5.40;;;3.65;;
44476;SDS011;30180;44.788;10.366;2022-08-06T15:20:52;8.27;;;3.53;;
44476;SDS011;30180;44.788;10.366;2022-08-06T15:23:22;12.15;;;4.72;;
44476;SDS011;30180;44.788;10.366;2022-08-06T15:26:10;10.65;;;4.45;;
44476;SDS011;30180;44.788;10.366;2022-08-06T15:28:59;9.60;;;3.90;;
44476;SDS011;30180;44.788;10.366;2022-08-06T15:34:00;13.90;;;4.18;;
44476;SDS011;30180;44.788;10.366;2022-08-06T15:36:32;23.15;;;5.03;;
44476;SDS011;30180;44.788;10.366;2022-08-06T15:39:01;12.27;;;4.07;;
44476;SDS011;30180;44.788;10.366;2022-08-06T15:41:35;14.65;;;4.28;;
44476;SDS011;30180;44.788;10.366;2022-08-06T15:44:08;17.10;;;3.95;;
44476;SDS011;30180;44.788;10.366;2022-08-06T15:46:38;13.40;;;3.77;;
44476;SDS011;30180;44.788;10.366;2022-08-06T15:49:08;8.88;;;4.25;;
44476;SDS011;30180;44.788;10.366;2022-08-06T15:51:37;17.83;;;5.13;;
44476;SDS011;30180;44.788;10.366;2022-08-06T15:54:05;10.70;;;4.00;;
44476;SDS011;30180;44.788;10.366;2022-08-06T15:56:34;12.70;;;4.20;;
44476;SDS011;30180;44.788;10.366;2022-08-06T15:59:04;11.75;;;4.22;;
44476;SDS011;30180;44.788;10.366;2022-08-06T16:01:38;11.52;;;4.10;;
44476;SDS011;30180;44.788;10.366;2022-08-06T16:04:29;11.00;;;3.80;;
44476;SDS011;30180;44.788;10.366;2022-08-06T16:07:02;7.22;;;3.65;;